Time;durP1;ratioP1;P1;durP2;ratioP2;P2;SDS_P1;SDS_P2;PMS_P1;PMS_P2;Temp;Humidity;BMP_temperature;BMP_pressure;BME280_temperature;BME280_humidity;BME280_pressure;Samples;Min_cycle;Max_cycle;Signal;HPM_P1;HPM_P2
2022/01/08 00:01:00;;;;;;;;;0.00;0.00;;;;;4.88;80.73;100982.47;5021640;28;45235;-81
2022/01/08 00:03:25;;;;;;;;;0.00;0.00;;;;;4.71;81.06;100965.50;5021845;28;45368;-80
2022/01/08 00:05:50;;;;;;;;;0.67;0.67;;;;;4.61;80.57;100954.06;5021354;28;45326;-81
2022/01/08 00:08:16;;;;;;;;;1.00;1.00;;;;;4.63;81.15;100960.88;5020120;28;47069;-80
2022/01/08 00:10:41;;;;;;;;;1.00;1.00;;;;;4.52;81.11;100956.50;5020072;28;45289;-80
2022/01/08 00:13:08;;;;;;;;;1.00;1.00;;;;;4.67;81.57;100988.59;5021483;28;45343;-80
2022/01/08 00:15:34;;;;;;;;;0.00;0.00;;;;;4.64;80.97;100996.75;5021526;28;45340;-80
2022/01/08 00:17:59;;;;;;;;;0.00;0.00;;;;;4.50;81.13;100989.19;5012723;28;47556;-80
2022/01/08 00:20:25;;;;;;;;;0.00;0.00;;;;;4.49;80.98;101005.94;5001524;28;45330;-80
2022/01/08 00:22:52;;;;;;;;;0.00;0.00;;;;;4.29;81.43;100992.63;5032358;28;45324;-80
2022/01/08 00:25:18;;;;;;;;;1.00;1.00;;;;;4.31;81.19;101011.75;5001411;28;45277;-81
2022/01/08 00:27:43;;;;;;;;;0.00;0.00;;;;;4.21;81.40;101009.06;5001295;28;46209;-80
2022/01/08 00:30:09;;;;;;;;;0.00;0.00;;;;;4.07;81.00;100999.66;4999877;28;45359;-80
2022/01/08 00:32:34;;;;;;;;;0.00;0.00;;;;;4.15;81.25;101006.91;5001498;28;45280;-80
2022/01/08 00:35:00;;;;;;;;;0.00;0.00;;;;;4.17;81.77;101026.88;5001331;28;45360;-80
2022/01/08 00:37:26;;;;;;;;;0.00;0.00;;;;;4.18;82.13;101038.25;5001094;28;46527;-80
2022/01/08 00:39:51;;;;;;;;;0.00;0.00;;;;;4.10;81.29;101025.69;5001122;28;45309;-80
2022/01/08 00:42:16;;;;;;;;;0.00;0.00;;;;;4.14;81.75;101039.47;5001342;28;45539;-79
2022/01/08 00:44:42;;;;;;;;;1.00;0.00;;;;;4.15;81.18;101051.66;5033147;28;46231;-80
2022/01/08 00:47:07;;;;;;;;;0.00;0.00;;;;;4.06;81.85;101050.59;5016194;28;48095;-80
2022/01/08 00:49:33;;;;;;;;;0.00;0.00;;;;;4.00;82.35;101051.09;5001139;28;45370;-80
2022/01/08 00:51:58;;;;;;;;;0.00;0.00;;;;;3.92;81.83;101031.50;5001227;28;45331;-80
2022/01/08 00:54:24;;;;;;;;;1.00;0.00;;;;;3.94;81.66;101041.91;5000831;28;45304;-80
2022/01/08 00:56:50;;;;;;;;;0.00;0.00;;;;;4.02;82.38;101068.44;5001038;28;45817;-79
2022/01/08 00:59:16;;;;;;;;;0.00;0.00;;;;;4.10;82.70;101073.06;5001050;28;45169;-80
2022/01/08 01:01:42;;;;;;;;;1.00;1.00;;;;;3.99;82.51;101066.06;5000969;28;45455;-79
2022/01/08 01:04:07;;;;;;;;;0.67;0.67;;;;;4.07;81.98;101067.22;4999281;28;46354;-80
2022/01/08 01:06:32;;;;;;;;;2.67;1.00;;;;;4.04;82.16;101073.53;5032222;28;48217;-80
2022/01/08 01:08:58;;;;;;;;;1.00;1.00;;;;;4.01;82.40;101072.00;5000417;28;45229;-79
2022/01/08 01:11:23;;;;;;;;;0.00;0.00;;;;;4.16;81.96;101092.81;5000599;28;45701;-80
2022/01/08 01:13:48;;;;;;;;;0.33;0.00;;;;;4.07;81.90;101080.38;5000634;28;45317;-80
2022/01/08 01:16:14;;;;;;;;;0.00;0.00;;;;;4.00;82.32;101077.38;5000625;28;45990;-80
2022/01/08 01:18:39;;;;;;;;;1.00;1.00;;;;;4.02;82.20;101083.38;5011603;28;45266;-80
2022/01/08 01:21:05;;;;;;;;;3.00;3.00;;;;;4.03;82.23;101092.94;5020489;28;45520;-80
2022/01/08 01:23:36;;;;;;;;;5.67;5.33;;;;;4.01;81.98;101090.41;5020085;28;45517;-80
2022/01/08 01:26:05;;;;;;;;;7.00;5.00;;;;;4.03;82.84;101091.16;5020274;28;46634;-80
2022/01/08 01:47:17;;;;;;;;;2.00;2.00;;;;;3.84;83.17;101083.03;5019803;28;45303;-80
2022/01/08 01:49:45;;;;;;;;;1.67;1.00;;;;;3.93;81.79;101103.34;5019840;28;45327;-80
2022/01/08 01:52:14;;;;;;;;;1.00;1.00;;;;;3.73;82.68;101089.13;5018271;28;45366;-80
2022/01/08 01:54:40;;;;;;;;;1.00;1.00;;;;;3.69;82.40;101091.19;5019743;28;45450;-80
2022/01/08 01:57:08;;;;;;;;;1.33;1.33;;;;;3.70;82.85;101103.38;5019784;28;46262;-80
2022/01/08 01:59:35;;;;;;;;;1.67;1.67;;;;;3.67;83.29;101093.09;5019780;28;45235;-80
2022/01/08 02:02:01;;;;;;;;;1.00;1.00;;;;;3.74;83.20;101109.22;5019838;28;45235;-80
2022/01/08 02:04:26;;;;;;;;;3.00;1.67;;;;;3.54;83.35;101083.53;5019587;28;45559;-80
2022/01/08 02:06:52;;;;;;;;;1.00;1.00;;;;;3.75;84.00;101113.53;5019351;28;46262;-80
2022/01/08 02:09:18;;;;;;;;;1.00;1.00;;;;;3.66;83.05;101092.25;5017843;28;45285;-80
2022/01/08 02:12:01;;;;;;;;;4.00;3.00;;;;;3.75;84.17;101111.75;5019745;28;45308;-80
2022/01/08 02:14:29;;;;;;;;;8.00;7.67;;;;;3.63;83.47;101095.13;5019673;28;45224;-80
2022/01/08 02:16:55;;;;;;;;;3.33;3.00;;;;;3.70;83.62;101105.16;5018177;28;48072;-80
2022/01/08 02:19:21;;;;;;;;;7.67;5.67;;;;;3.70;83.39;101107.78;5001127;28;45324;-80
2022/01/08 02:21:53;;;;;;;;;5.00;5.00;;;;;3.62;83.24;101095.25;4999727;28;45311;-80
2022/01/08 02:24:19;;;;;;;;;2.00;2.00;;;;;3.64;83.37;101101.22;4999518;28;45292;-80
2022/01/08 02:26:45;;;;;;;;;3.00;3.00;;;;;3.52;84.30;101081.97;5031358;28;47167;-80
2022/01/08 02:29:11;;;;;;;;;1.33;1.33;;;;;3.67;83.27;101108.84;4999652;28;45346;-80
2022/01/08 02:31:37;;;;;;;;;2.33;2.33;;;;;3.59;83.23;101109.44;4998379;28;45472;-80
2022/01/08 02:34:04;;;;;;;;;2.00;2.00;;;;;3.64;84.07;101122.25;4999517;28;45297;-80
2022/01/08 02:36:30;;;;;;;;;1.33;1.33;;;;;3.54;83.86;101104.53;4999463;28;45327;-80
2022/01/08 02:38:55;;;;;;;;;1.00;1.00;;;;;3.53;84.55;101109.91;4997906;28;45183;-80
2022/01/08 02:41:21;;;;;;;;;3.00;2.00;;;;;3.57;84.77;101108.75;5031374;28;45263;-81
2022/01/08 02:43:52;;;;;;;;;2.00;2.00;;;;;3.59;84.33;101101.56;5031109;28;46700;-80
2022/01/08 02:46:18;;;;;;;;;1.33;1.33;;;;;3.52;83.97;101085.44;4999002;28;47613;-80
2022/01/08 02:48:43;;;;;;;;;1.33;1.33;;;;;3.70;84.01;101113.03;5002804;28;45319;-80
2022/01/08 02:51:08;;;;;;;;;2.00;2.00;;;;;3.72;83.99;101119.88;5034883;28;45252;-80
2022/01/08 02:53:34;;;;;;;;;4.33;3.00;;;;;3.65;84.34;101108.97;5034282;28;47057;-80
2022/01/08 02:55:59;;;;;;;;;1.67;1.00;;;;;3.56;83.54;101093.91;5002556;28;45928;-80
2022/01/08 02:58:26;;;;;;;;;2.00;2.00;;;;;3.60;84.33;101102.41;5002792;28;45322;-80
2022/01/08 03:00:52;;;;;;;;;1.00;1.00;;;;;3.62;84.32;101106.59;5034725;28;45229;-80
2022/01/08 03:03:17;;;;;;;;;1.33;1.00;;;;;3.63;84.16;101118.78;5034324;28;45185;-80
2022/01/08 03:05:42;;;;;;;;;1.00;1.00;;;;;3.67;84.65;101124.63;5002409;28;45315;-79
2022/01/08 03:08:08;;;;;;;;;1.33;1.33;;;;;3.59;84.63;101092.88;5002379;28;45217;-80
2022/01/08 03:10:33;;;;;;;;;1.67;1.00;;;;;3.57;84.12;101107.91;5002460;28;45302;-80
2022/01/08 03:12:59;;;;;;;;;1.00;1.00;;;;;3.60;83.89;101112.94;5002411;28;45612;-80
2022/01/08 03:15:25;;;;;;;;;1.33;1.33;;;;;3.67;84.59;101108.84;5002543;28;46538;-80
2022/01/08 03:17:50;;;;;;;;;3.00;1.67;;;;;3.73;84.33;101118.06;5008059;28;45369;-80
2022/01/08 03:20:16;;;;;;;;;3.00;1.67;;;;;3.84;83.97;101125.13;5022346;28;45331;-80
2022/01/08 03:22:44;;;;;;;;;5.33;4.00;;;;;3.80;83.66;101124.50;5022114;28;45282;-80
2022/01/08 03:25:11;;;;;;;;;2.67;2.67;;;;;3.85;84.58;101122.38;5021925;28;45376;-79
2022/01/08 03:27:37;;;;;;;;;6.33;6.33;;;;;3.87;83.91;101103.84;5022103;28;45229;-80
2022/01/08 03:30:05;;;;;;;;;3.00;3.00;;;;;3.87;83.11;101096.78;5022257;28;45355;-80
2022/01/08 03:32:30;;;;;;;;;1.33;1.33;;;;;3.84;84.21;101089.16;5021957;28;46594;-80
2022/01/08 03:34:55;;;;;;;;;1.67;1.67;;;;;3.91;83.86;101111.38;5020630;28;47035;-80
2022/01/08 03:37:21;;;;;;;;;2.33;1.00;;;;;3.96;83.90;101115.41;5020379;28;45344;-80
2022/01/08 03:39:46;;;;;;;;;1.00;1.00;;;;;3.96;83.51;101118.06;5022023;28;45281;-80
2022/01/08 03:42:12;;;;;;;;;2.00;2.00;;;;;3.76;83.77;101081.84;5021969;28;45325;-80
2022/01/08 03:44:37;;;;;;;;;3.00;1.00;;;;;3.83;84.00;101087.44;5020419;28;47129;-80
2022/01/08 03:49:47;;;;;;;;;2.00;1.33;;;;;3.77;83.39;101104.56;5021955;28;45351;-80
2022/01/08 03:52:12;;;;;;;;;2.67;1.00;;;;;3.64;83.58;101091.53;5020075;28;46090;-80
2022/01/08 03:54:39;;;;;;;;;1.00;1.00;;;;;3.63;83.60;101099.53;5021501;28;45379;-80
2022/01/08 03:57:04;;;;;;;;;3.67;2.00;;;;;3.71;84.01;101109.47;5021749;28;45366;-80
2022/01/08 03:59:30;;;;;;;;;4.33;3.33;;;;;3.72;83.45;101111.97;5021651;28;45515;-80
2022/01/08 04:01:55;;;;;;;;;3.00;3.00;;;;;3.64;83.88;101109.94;5021703;28;45391;-80
2022/01/08 04:04:20;;;;;;;;;3.00;2.00;;;;;3.70;83.96;101110.41;5021481;28;46109;-80
2022/01/08 04:06:46;;;;;;;;;3.00;2.33;;;;;3.68;84.20;101115.78;5020005;28;45266;-80
2022/01/08 04:09:12;;;;;;;;;2.00;2.00;;;;;3.70;84.35;101113.03;5020114;28;45303;-79
2022/01/08 04:11:37;;;;;;;;;3.00;2.00;;;;;3.75;83.79;101124.03;5021052;28;45258;-79
2022/01/08 04:14:02;;;;;;;;;3.33;2.67;;;;;3.70;84.19;101110.41;5021091;28;45264;-80
2022/01/08 04:16:32;;;;;;;;;1.67;1.33;;;;;3.60;84.44;101090.13;5019957;28;45546;-80
2022/01/08 04:18:58;;;;;;;;;3.00;3.00;;;;;3.65;84.29;101116.88;5006401;28;45345;-79
2022/01/08 04:23:53;;;;;;;;;1.00;1.00;;;;;3.53;83.82;101121.28;5001027;28;45291;-80
2022/01/08 04:26:21;;;;;;;;;2.33;2.33;;;;;3.61;83.94;101131.22;5001250;28;45304;-80
2022/01/08 04:28:47;;;;;;;;;3.00;2.67;;;;;3.59;83.50;101135.75;5001520;28;45331;-80
2022/01/08 04:31:13;;;;;;;;;2.33;2.00;;;;;3.45;84.17;101126.31;5001087;28;45285;-80
2022/01/08 04:33:39;;;;;;;;;3.00;3.00;;;;;3.45;84.43;101128.94;5001197;28;46317;-80
2022/01/08 04:36:04;;;;;;;;;2.33;2.33;;;;;3.50;84.28;101128.59;4999644;28;45388;-80
2022/01/08 04:38:31;;;;;;;;;2.33;2.33;;;;;3.60;84.44;101137.44;5001173;28;45229;-80
2022/01/08 04:40:57;;;;;;;;;2.67;2.67;;;;;3.57;84.41;101129.78;5001156;28;45229;-80
2022/01/08 04:43:23;;;;;;;;;2.00;2.00;;;;;3.53;84.02;101117.81;4999582;28;48229;-80
2022/01/08 04:45:50;;;;;;;;;3.00;3.00;;;;;3.58;84.12;101128.81;4999576;28;45516;-80
2022/01/08 04:48:15;;;;;;;;;1.00;1.00;;;;;3.60;84.34;101134.81;5001054;28;45345;-80
2022/01/08 04:50:40;;;;;;;;;1.33;1.33;;;;;3.65;84.71;101134.41;5000901;28;45518;-80
2022/01/08 04:53:06;;;;;;;;;2.33;2.33;;;;;3.70;84.98;101137.53;5000846;28;45304;-80
2022/01/08 04:55:32;;;;;;;;;4.00;2.33;;;;;3.64;84.77;101130.97;5000841;28;45344;-79
2022/01/08 04:57:57;;;;;;;;;1.00;1.00;;;;;3.67;84.50;101129.91;5001158;28;45249;-80
2022/01/08 05:00:23;;;;;;;;;1.67;1.33;;;;;3.67;84.57;101129.91;5000832;28;45242;-80
2022/01/08 05:02:49;;;;;;;;;2.00;2.00;;;;;3.63;84.31;101126.69;5000872;28;46184;-80
2022/01/08 05:05:15;;;;;;;;;1.00;1.00;;;;;3.63;83.67;101146.88;4999471;28;46221;-80
2022/01/08 05:07:40;;;;;;;;;2.33;2.33;;;;;3.56;84.18;101149.13;5000456;28;45457;-80
2022/01/08 05:10:07;;;;;;;;;1.67;1.67;;;;;3.51;83.92;101154.72;5031689;28;46046;-80
2022/01/08 05:12:33;;;;;;;;;0.00;0.00;;;;;3.64;84.00;101174.81;5000587;28;45355;-80
2022/01/08 05:15:00;;;;;;;;;1.00;1.00;;;;;3.46;83.81;101158.66;5000642;28;45222;-80
2022/01/08 05:17:29;;;;;;;;;2.00;2.00;;;;;3.52;84.33;101164.31;5002977;28;45583;-80
2022/01/08 05:19:58;;;;;;;;;2.67;2.67;;;;;3.53;82.99;101168.59;5020260;28;45492;-80
2022/01/08 05:22:27;;;;;;;;;2.00;2.00;;;;;3.37;83.19;101153.16;5018667;28;47397;-80
2022/01/08 05:24:53;;;;;;;;;3.33;2.33;;;;;3.45;83.80;101167.50;5020075;28;45278;-80
2022/01/08 05:27:18;;;;;;;;;1.00;1.00;;;;;3.33;83.46;101145.63;5020508;28;45335;-80
2022/01/08 05:29:45;;;;;;;;;2.00;1.00;;;;;3.25;83.86;101136.53;5018926;28;46241;-80
2022/01/08 05:32:16;;;;;;;;;1.33;1.33;;;;;3.33;83.79;101143.84;5018681;28;47015;-80
2022/01/08 05:34:48;;;;;;;;;1.00;0.00;;;;;3.34;83.48;101163.91;5020308;28;45422;-80
2022/01/08 05:37:15;;;;;;;;;2.00;2.00;;;;;3.35;83.46;101160.31;5020136;28;45284;-79
2022/01/08 05:39:40;;;;;;;;;0.33;0.33;;;;;3.36;83.81;101171.69;5019957;28;45258;-82
2022/01/08 05:42:06;;;;;;;;;3.00;3.00;;;;;3.27;84.74;101155.63;5019960;28;45463;-79
2022/01/08 05:44:32;;;;;;;;;1.67;1.67;;;;;3.26;84.06;101146.09;5018919;28;45922;-80
2022/01/08 05:46:57;;;;;;;;;3.00;2.00;;;;;3.38;84.33;101157.47;5020260;28;45367;-79
2022/01/08 05:49:22;;;;;;;;;2.67;2.67;;;;;3.39;84.07;101159.13;5018701;28;45720;-80
2022/01/08 05:51:48;;;;;;;;;2.00;2.00;;;;;3.49;83.93;101161.06;5019633;28;46287;-79
2022/01/08 05:54:13;;;;;;;;;2.00;2.00;;;;;3.48;84.30;101149.72;5018480;28;45261;-80
2022/01/08 05:56:39;;;;;;;;;2.67;2.00;;;;;3.47;85.07;101132.25;5020138;28;45490;-80
2022/01/08 05:59:04;;;;;;;;;3.00;2.00;;;;;3.63;84.16;101146.88;5019857;28;45285;-80
2022/01/08 06:01:31;;;;;;;;;2.00;2.00;;;;;3.68;84.47;101141.25;5018473;28;47016;-80
2022/01/08 06:03:57;;;;;;;;;2.33;2.33;;;;;3.68;84.18;101133.38;5019877;28;45347;-80
2022/01/08 06:06:22;;;;;;;;;2.00;2.00;;;;;3.56;84.53;101104.44;5019689;28;45310;-80
2022/01/08 06:08:47;;;;;;;;;2.67;2.67;;;;;3.73;84.76;101132.06;5019614;28;45267;-80
2022/01/08 06:11:13;;;;;;;;;4.00;2.67;;;;;3.68;84.89;101115.78;5017969;28;48155;-80
2022/01/08 06:13:38;;;;;;;;;2.00;1.67;;;;;3.73;84.56;101115.44;5019601;28;45226;-80
2022/01/08 06:16:04;;;;;;;;;1.00;1.00;;;;;3.84;84.69;101131.22;5012201;28;45212;-80
2022/01/08 06:18:30;;;;;;;;;6.33;4.33;;;;;3.86;85.24;101128.47;5030937;28;46242;-80
2022/01/08 06:20:59;;;;;;;;;4.67;4.67;;;;;3.82;85.05;101124.38;5000363;28;45379;-80
2022/01/08 06:23:24;;;;;;;;;2.67;2.67;;;;;3.88;84.86;101132.66;5018275;28;45341;-79
2022/01/08 06:25:49;;;;;;;;;4.00;3.00;;;;;3.88;84.53;101131.78;5003257;28;45333;-80
2022/01/08 06:28:15;;;;;;;;;4.00;3.67;;;;;4.02;85.22;101143.88;5035204;28;45957;-81
2022/01/08 06:30:41;;;;;;;;;3.33;3.33;;;;;4.04;85.24;101124.38;5003178;28;45293;-81
2022/01/08 06:33:06;;;;;;;;;7.67;4.00;;;;;4.09;85.36;101120.53;5003309;28;45222;-82
2022/01/08 06:35:31;;;;;;;;;1.00;1.00;;;;;4.12;84.81;101115.03;5003328;28;45165;-82
2022/01/08 06:37:57;;;;;;;;;7.00;6.67;;;;;4.16;84.80;101117.28;5002909;28;45286;-80
2022/01/08 06:40:22;;;;;;;;;22.33;20.33;;;;;4.17;84.67;101105.81;5002954;28;45233;-79
2022/01/08 06:42:47;;;;;;;;;7.00;5.00;;;;;4.21;85.02;101088.00;5034856;28;45865;-79
2022/01/08 06:45:13;;;;;;;;;3.67;3.33;;;;;4.23;85.04;101074.72;5003176;28;45342;-79
2022/01/08 06:47:38;;;;;;;;;3.67;3.67;;;;;4.31;84.50;101090.69;5002873;28;45404;-80
2022/01/08 06:50:04;;;;;;;;;3.33;3.33;;;;;4.34;84.84;101095.72;5002863;28;46024;-80
2022/01/08 06:52:32;;;;;;;;;3.00;2.00;;;;;4.25;84.64;101086.78;5002668;28;45760;-79
2022/01/08 06:54:57;;;;;;;;;2.00;1.00;;;;;4.25;84.58;101085.97;5002954;28;45308;-79
2022/01/08 06:57:23;;;;;;;;;3.33;1.67;;;;;4.35;84.71;101099.19;5034697;28;45889;-79
2022/01/08 06:59:48;;;;;;;;;3.00;3.00;;;;;4.37;84.69;101100.72;5034443;28;48359;-79
2022/01/08 07:02:13;;;;;;;;;3.00;3.00;;;;;4.39;84.74;101106.72;5002861;28;45304;-80
2022/01/08 07:04:39;;;;;;;;;2.00;2.00;;;;;4.34;84.83;101089.63;5002810;28;45507;-80
2022/01/08 07:07:04;;;;;;;;;3.00;3.00;;;;;4.39;84.44;101097.97;5002264;28;45454;-80
2022/01/08 07:09:29;;;;;;;;;4.00;4.00;;;;;4.49;85.07;101111.25;5002170;28;46277;-80
2022/01/08 07:11:54;;;;;;;;;5.33;4.67;;;;;4.49;84.91;101105.97;5002481;28;45255;-79
2022/01/08 07:14:20;;;;;;;;;4.00;4.00;;;;;4.46;84.45;101086.00;5034625;28;45252;-79
2022/01/08 07:16:47;;;;;;;;;6.33;6.33;;;;;4.46;84.67;101077.28;5002470;28;45214;-79
2022/01/08 07:19:12;;;;;;;;;4.00;4.00;;;;;4.65;85.19;101092.38;5019248;28;45303;-79
2022/01/08 07:21:38;;;;;;;;;4.00;3.67;;;;;4.54;84.71;101059.88;5020871;28;45285;-79
2022/01/08 07:24:03;;;;;;;;;3.33;3.33;;;;;4.71;84.76;101091.03;5022210;28;45191;-79
2022/01/08 07:26:28;;;;;;;;;5.00;4.33;;;;;4.64;84.49;101072.28;5022182;28;45229;-80
2022/01/08 07:28:54;;;;;;;;;3.33;3.33;;;;;4.76;84.58;101092.31;5022171;28;45280;-80
2022/01/08 07:31:19;;;;;;;;;3.00;2.00;;;;;4.74;84.80;101091.63;5022085;28;45265;-78
2022/01/08 07:33:49;;;;;;;;;3.33;3.33;;;;;4.80;84.75;101087.66;5020493;28;45306;-79
2022/01/08 07:36:16;;;;;;;;;3.00;2.33;;;;;4.85;84.59;101080.19;5022110;28;45289;-78
2022/01/08 07:38:41;;;;;;;;;3.33;2.00;;;;;4.87;84.85;101073.00;5021700;28;45254;-78
2022/01/08 07:41:06;;;;;;;;;3.00;3.00;;;;;4.90;84.59;101071.91;5006020;28;45747;-79
2022/01/08 07:43:32;;;;;;;;;3.33;3.00;;;;;4.82;84.57;101050.66;5016765;28;45338;-78
2022/01/08 07:45:57;;;;;;;;;5.00;5.00;;;;;4.85;84.42;101059.13;5001686;28;45889;-79
2022/01/08 07:48:22;;;;;;;;;2.00;2.00;;;;;4.84;84.46;101053.97;5001971;28;46200;-79
2022/01/08 07:50:48;;;;;;;;;2.00;2.00;;;;;4.77;84.73;101033.44;5002003;28;45258;-79
2022/01/08 07:53:13;;;;;;;;;2.67;2.67;;;;;4.79;84.58;101034.13;5033334;28;45618;-80
2022/01/08 07:55:38;;;;;;;;;5.00;5.00;;;;;4.82;84.91;101024.31;5001480;28;45237;-80
2022/01/08 07:58:04;;;;;;;;;5.33;5.33;;;;;4.79;85.53;101026.22;5002473;28;45351;-80
2022/01/08 08:00:29;;;;;;;;;5.00;5.00;;;;;4.95;84.96;101042.53;5002210;28;45211;-80
2022/01/08 08:02:54;;;;;;;;;3.00;1.00;;;;;4.93;85.45;101034.78;5033205;28;45290;-80
2022/01/08 08:05:20;;;;;;;;;5.00;2.33;;;;;5.03;85.59;101048.81;5001005;28;45477;-80
2022/01/08 08:07:45;;;;;;;;;2.00;2.00;;;;;5.08;85.38;101056.34;5032535;28;47306;-79
2022/01/08 08:10:13;;;;;;;;;2.67;2.67;;;;;5.03;85.24;101037.47;5016132;28;45354;-78
2022/01/08 08:12:40;;;;;;;;;2.00;2.00;;;;;5.20;84.96;101058.91;5033609;28;45330;-78
2022/01/08 08:15:07;;;;;;;;;5.00;3.00;;;;;5.20;84.92;101043.09;5033270;28;47505;-78
2022/01/08 08:17:33;;;;;;;;;4.00;4.00;;;;;5.25;85.02;101044.38;5004546;28;47244;-78
2022/01/08 08:19:59;;;;;;;;;8.00;6.00;;;;;5.17;85.20;101013.41;5021262;28;45236;-78
2022/01/08 08:22:24;;;;;;;;;11.67;11.67;;;;;5.29;85.37;101019.41;5021203;28;45298;-78
2022/01/08 08:24:49;;;;;;;;;8.67;8.00;;;;;5.20;85.48;100985.13;5021029;28;45470;-78
2022/01/08 08:27:15;;;;;;;;;12.67;12.33;;;;;5.35;85.13;100994.31;5021250;28;45285;-78
2022/01/08 08:29:41;;;;;;;;;15.00;13.33;;;;;5.29;85.36;100977.25;5014385;28;45346;-78
2022/01/08 08:32:07;;;;;;;;;11.67;11.67;;;;;5.40;85.37;100992.13;4999367;28;45347;-79
2022/01/08 08:34:33;;;;;;;;;18.00;17.00;;;;;5.41;85.24;100988.53;5000583;28;45467;-79
2022/01/08 08:36:59;;;;;;;;;17.00;16.33;;;;;5.38;84.95;100974.75;5000170;28;46359;-79
2022/01/08 08:39:25;;;;;;;;;17.33;16.00;;;;;5.51;85.01;100982.47;5001659;28;45272;-79
2022/01/08 08:41:51;;;;;;;;;14.67;13.00;;;;;5.55;85.17;100970.66;5001341;28;45352;-80
2022/01/08 08:44:16;;;;;;;;;7.00;7.00;;;;;5.57;85.18;100966.09;4999769;28;45219;-80
2022/01/08 08:46:42;;;;;;;;;6.33;6.00;;;;;5.66;85.28;100970.53;5001160;28;45743;-79
2022/01/08 08:49:07;;;;;;;;;9.67;4.67;;;;;5.63;85.11;100965.53;5001155;28;45315;-79
2022/01/08 08:51:33;;;;;;;;;16.33;16.33;;;;;5.67;85.19;100964.31;5000214;28;46826;-79
2022/01/08 08:53:58;;;;;;;;;8.33;7.00;;;;;5.63;85.31;100957.63;4999961;28;45372;-79
2022/01/08 08:56:23;;;;;;;;;3.00;3.00;;;;;5.60;85.63;100944.69;5000518;28;45571;-79
2022/01/08 08:58:49;;;;;;;;;9.67;5.00;;;;;5.71;85.67;100946.41;5000603;28;45353;-79
2022/01/08 09:01:14;;;;;;;;;4.33;4.00;;;;;5.83;85.39;100960.28;5002202;28;45182;-79
2022/01/08 09:03:40;;;;;;;;;7.67;7.67;;;;;5.84;85.29;100947.94;4998478;28;45963;-79
2022/01/08 09:06:05;;;;;;;;;6.00;6.00;;;;;5.85;85.37;100945.16;5001156;28;45336;-79
2022/01/08 09:08:30;;;;;;;;;8.00;4.33;;;;;5.88;85.41;100941.41;5001586;28;45411;-79
2022/01/08 09:10:56;;;;;;;;;6.00;6.00;;;;;5.77;85.72;100919.47;5001924;28;45258;-79
2022/01/08 09:13:24;;;;;;;;;10.67;9.00;;;;;5.86;86.13;100928.34;5000321;28;46406;-80
2022/01/08 09:15:50;;;;;;;;;12.00;8.33;;;;;6.02;85.80;100953.38;5001599;28;45940;-80
2022/01/08 09:18:16;;;;;;;;;11.00;8.33;;;;;6.02;86.02;100942.81;5011308;28;45304;-79
2022/01/08 09:20:43;;;;;;;;;10.00;7.67;;;;;6.13;85.98;100955.88;5021415;28;45223;-80
2022/01/08 09:23:08;;;;;;;;;10.33;8.00;;;;;6.07;86.11;100935.31;5021064;28;46362;-79
2022/01/08 09:25:34;;;;;;;;;10.67;8.67;;;;;6.11;85.93;100933.25;5021106;28;45264;-80
2022/01/08 09:28:00;;;;;;;;;13.33;10.67;;;;;6.12;86.28;100927.84;5021192;28;45608;-80
2022/01/08 09:30:26;;;;;;;;;14.67;10.67;;;;;6.12;86.62;100914.66;5021319;28;45333;-80
2022/01/08 09:32:53;;;;;;;;;10.67;7.67;;;;;6.10;86.75;100899.94;5020142;28;46407;-80
2022/01/08 09:35:19;;;;;;;;;15.33;12.33;;;;;6.28;87.01;100919.34;5020074;28;45313;-81
2022/01/08 09:37:44;;;;;;;;;16.00;11.00;;;;;6.23;86.68;100904.91;5019806;28;45313;-82
2022/01/08 09:40:14;;;;;;;;;12.67;12.67;;;;;6.22;86.50;100874.22;5018664;28;45372;-81
2022/01/08 09:42:41;;;;;;;;;14.00;13.67;;;;;6.36;86.89;100881.66;5020038;28;45399;-80
2022/01/08 09:45:07;;;;;;;;;11.67;10.00;;;;;6.50;86.97;100883.00;5018446;28;47466;-80
2022/01/08 09:47:33;;;;;;;;;13.33;13.33;;;;;6.46;87.21;100870.25;5019933;28;45245;-79
2022/01/08 09:49:58;;;;;;;;;15.00;12.67;;;;;6.49;86.76;100864.69;5020056;28;45253;-80
2022/01/08 09:52:24;;;;;;;;;18.33;13.67;;;;;6.55;87.16;100874.66;5019560;28;45354;-80
2022/01/08 09:54:49;;;;;;;;;13.00;11.67;;;;;6.56;87.12;100871.06;5019665;28;46128;-80
2022/01/08 09:57:15;;;;;;;;;8.67;8.67;;;;;6.57;87.11;100862.16;5019918;28;45337;-80
2022/01/08 09:59:40;;;;;;;;;15.00;11.67;;;;;6.61;87.00;100855.59;5020107;28;45274;-80
2022/01/08 10:02:06;;;;;;;;;15.00;13.67;;;;;6.69;87.41;100865.44;5019774;28;45212;-81
2022/01/08 10:04:35;;;;;;;;;16.33;11.33;;;;;6.79;87.32;100876.78;5019860;28;45918;-80
2022/01/08 10:07:19;;;;;;;;;13.00;12.00;;;;;6.80;86.76;100872.34;5019282;28;45395;-80
2022/01/08 10:10:01;;;;;;;;;12.33;11.33;;;;;6.76;86.92;100857.78;5019665;28;45187;-80
2022/01/08 10:12:59;;;;;;;;;12.00;12.00;;;;;6.84;87.60;100857.88;5018470;28;47458;-80
2022/01/08 10:18:32;;;;;;;;;12.33;12.33;;;;;6.87;87.39;100846.16;5010029;28;45445;-80
2022/01/08 10:21:00;;;;;;;;;14.33;12.33;;;;;6.89;87.56;100831.00;5000379;28;45329;-81
2022/01/08 10:23:28;;;;;;;;;14.00;13.33;;;;;7.01;87.35;100831.63;5000089;28;45403;-81
2022/01/08 10:25:59;;;;;;;;;13.67;12.33;;;;;7.07;87.55;100818.63;4999731;28;45289;-81
2022/01/08 10:28:54;;;;;;;;;13.00;13.00;;;;;7.16;87.42;100818.75;4998844;28;45241;-81
2022/01/08 10:31:21;;;;;;;;;14.67;13.00;;;;;7.16;87.67;100801.03;4996302;28;45369;-83
2022/01/08 10:34:08;;;;;;;;;11.67;11.67;;;;;7.27;87.90;100788.63;4998830;28;45277;-81
2022/01/08 10:36:39;;;;;;;;;16.00;14.00;;;;;7.35;87.73;100778.09;4997923;28;47227;-82
2022/01/08 10:39:09;;;;;;;;;16.00;14.00;;;;;7.31;87.98;100760.88;4999600;28;45320;-82
2022/01/08 10:41:42;;;;;;;;;15.00;13.67;;;;;7.41;88.19;100782.78;4998183;28;45326;-83
2022/01/08 10:44:15;;;;;;;;;13.00;12.67;;;;;7.42;87.85;100789.72;4999353;28;45285;-82
2022/01/08 10:46:55;;;;;;;;;11.67;11.67;;;;;7.32;87.84;100781.03;4998878;28;47187;-81
2022/01/08 10:50:02;;;;;;;;;13.33;12.00;;;;;7.35;88.13;100777.25;4998172;28;45320;-81
2022/01/08 10:52:39;;;;;;;;;15.00;13.00;;;;;7.38;87.42;100767.22;4997567;28;45544;-82
2022/01/08 10:55:05;;;;;;;;;11.67;11.67;;;;;7.42;88.10;100759.78;4997466;28;45281;-81
2022/01/08 10:57:32;;;;;;;;;13.00;12.33;;;;;7.38;88.12;100753.16;4998745;28;45227;-82
2022/01/08 10:59:58;;;;;;;;;12.67;10.00;;;;;7.41;88.07;100742.28;4995970;28;45535;-81
2022/01/08 11:02:28;;;;;;;;;13.00;12.00;;;;;7.43;88.45;100737.69;4996051;28;45357;-82
2022/01/08 11:04:54;;;;;;;;;12.67;11.33;;;;;7.53;88.35;100737.56;4999582;28;45258;-81
2022/01/08 11:07:24;;;;;;;;;10.33;8.00;;;;;7.57;88.14;100723.03;4999794;28;46194;-81
2022/01/08 11:09:55;;;;;;;;;15.33;13.00;;;;;7.56;88.50;100716.94;5002158;28;45374;-80
2022/01/08 11:12:29;;;;;;;;;14.67;12.00;;;;;7.57;88.77;100697.44;5002674;28;45267;-80
2022/01/08 11:15:12;;;;;;;;;14.67;12.33;;;;;7.64;88.79;100710.06;5002343;28;45355;-83
2022/01/08 11:17:40;;;;;;;;;14.33;13.33;;;;;7.69;88.89;100703.31;5006269;28;46096;-81
2022/01/08 11:20:12;;;;;;;;;10.00;10.00;;;;;7.70;88.73;100693.56;5022207;28;45347;-82
2022/01/08 11:22:43;;;;;;;;;8.33;8.33;;;;;7.67;88.66;100680.63;5022121;28;45261;-82
2022/01/08 11:25:21;;;;;;;;;11.67;11.67;;;;;7.68;88.63;100669.06;5021950;28;45525;-80
2022/01/08 11:27:55;;;;;;;;;9.67;8.33;;;;;7.84;88.94;100686.84;5022119;28;45279;-81
2022/01/08 11:30:26;;;;;;;;;10.67;10.00;;;;;7.88;88.46;100679.41;5020562;28;46282;-82
2022/01/08 11:33:00;;;;;;;;;12.67;11.00;;;;;7.89;88.75;100662.56;5022087;28;45223;-81
2022/01/08 11:35:26;;;;;;;;;12.33;12.00;;;;;7.91;89.31;100656.13;5022176;28;45246;-81
2022/01/08 11:37:55;;;;;;;;;8.67;8.00;;;;;7.97;88.56;100652.00;5015483;28;46031;-83
2022/01/08 11:40:24;;;;;;;;;10.00;8.67;;;;;7.95;88.96;100640.75;5001306;28;45598;-84
2022/01/08 11:42:49;;;;;;;;;12.00;10.33;;;;;8.06;88.60;100644.94;4997620;28;45467;-80
2022/01/08 11:45:21;;;;;;;;;10.00;10.00;;;;;8.02;89.06;100622.44;5001211;28;45364;-82
2022/01/08 11:47:50;;;;;;;;;11.33;8.33;;;;;8.11;88.84;100632.03;5001357;28;46230;-80
2022/01/08 11:50:23;;;;;;;;;10.67;8.00;;;;;8.02;88.55;100603.91;5001522;28;45352;-80
2022/01/08 11:53:11;;;;;;;;;9.67;8.00;;;;;8.07;88.69;100591.84;5001573;28;45425;-81
2022/01/08 11:55:37;;;;;;;;;8.67;7.67;;;;;8.13;89.35;100593.00;5001741;28;45361;-79